createdAt,value
2023-04-21T00:02:25.832Z,6.91
2023-04-21T00:07:27.608Z,6.88
2023-04-21T00:12:31.580Z,6.89
2023-04-21T00:17:33.275Z,6.86
2023-04-21T00:22:37.988Z,6.82
2023-04-21T00:27:41.818Z,6.78
2023-04-21T00:32:48.367Z,6.77
2023-04-21T00:37:52.240Z,6.76
2023-04-21T00:42:56.344Z,6.73
2023-04-21T00:47:58.031Z,6.73
2023-04-21T00:53:03.311Z,6.73
2023-04-21T00:58:06.043Z,6.73
2023-04-21T01:03:08.199Z,6.70
2023-04-21T01:08:13.296Z,6.70
2023-04-21T01:13:14.962Z,6.65
2023-04-21T01:18:25.115Z,6.61
2023-04-21T01:23:26.981Z,6.61
2023-04-21T01:28:31.265Z,6.57
2023-04-21T01:33:32.996Z,6.57
2023-04-21T01:38:38.756Z,6.54
2023-04-21T01:43:40.455Z,6.47
2023-04-21T01:48:46.670Z,6.47
2023-04-21T01:53:48.322Z,6.43
2023-04-21T01:58:53.335Z,6.40
2023-04-21T02:03:55.535Z,6.37
2023-04-21T02:09:00.127Z,6.36
2023-04-21T02:14:08.205Z,6.33
2023-04-21T02:19:10.001Z,6.28
2023-04-21T02:24:14.030Z,6.26
2023-04-21T02:29:15.999Z,6.23
2023-04-21T02:34:25.089Z,6.21
2023-04-21T02:39:26.910Z,6.16
2023-04-21T02:44:28.598Z,6.13
2023-04-21T02:49:30.253Z,6.10
2023-04-21T02:54:36.464Z,6.05
2023-04-21T02:59:40.483Z,6.03
2023-04-21T03:04:44.759Z,6.01
2023-04-21T03:09:51.203Z,6.02
2023-04-21T03:14:52.921Z,5.96
2023-04-21T03:19:59.372Z,5.95
2023-04-21T03:25:01.052Z,5.95
2023-04-21T03:30:02.991Z,5.92
2023-04-21T03:35:08.093Z,5.91
2023-04-21T03:40:12.402Z,5.92
2023-04-21T03:45:19.655Z,5.92
2023-04-21T03:50:21.398Z,5.90
2023-04-21T03:55:27.927Z,5.88
2023-04-21T04:00:29.632Z,5.88
2023-04-21T04:05:31.322Z,5.87
2023-04-21T04:10:35.288Z,5.89
2023-04-21T04:15:40.235Z,5.91
2023-04-21T04:20:41.950Z,5.92
2023-04-21T04:25:48.378Z,6.16
2023-04-21T04:30:50.583Z,6.13
2023-04-21T04:35:54.854Z,6.11
2023-04-21T04:40:58.965Z,6.06
2023-04-21T04:46:04.719Z,6.08
2023-04-21T04:51:06.450Z,6.10
2023-04-21T04:56:13.083Z,6.34
2023-04-21T05:01:20.043Z,6.83
2023-04-21T05:06:21.784Z,6.88
2023-04-21T05:11:26.021Z,6.85
2023-04-21T05:16:27.774Z,6.78
2023-04-21T05:21:33.447Z,6.77
2023-04-21T05:26:35.540Z,6.77
2023-04-21T05:31:39.625Z,6.81
2023-04-21T05:36:42.565Z,6.89
2023-04-21T05:41:47.000Z,6.96
2023-04-21T05:46:55.355Z,7.05
2023-04-21T05:51:59.283Z,7.14
2023-04-21T05:57:03.964Z,7.26
2023-04-21T06:02:06.224Z,7.42
2023-04-21T06:07:09.733Z,7.56
2023-04-21T06:12:13.963Z,7.69
2023-04-21T06:17:19.097Z,7.83
2023-04-21T06:22:21.005Z,7.98
2023-04-21T06:27:22.653Z,8.12
2023-04-21T06:32:24.371Z,8.24
2023-04-21T06:37:28.645Z,8.40
2023-04-21T06:42:32.596Z,8.55
2023-04-21T06:47:34.352Z,8.71
2023-04-21T06:52:36.276Z,8.87
2023-04-21T06:57:38.039Z,9.01
2023-04-21T07:02:42.317Z,9.34
2023-04-21T07:07:44.091Z,9.51
2023-04-21T07:12:46.552Z,9.63
2023-04-21T07:17:52.464Z,9.76
2023-04-21T07:22:56.883Z,9.88
2023-04-21T07:28:02.844Z,10.04
2023-04-21T07:33:06.827Z,10.18
2023-04-21T07:38:09.112Z,10.34
2023-04-21T07:43:12.908Z,10.63
2023-04-21T07:48:14.679Z,10.85
2023-04-21T07:53:18.722Z,10.95
2023-04-21T07:58:21.531Z,11.10
2023-04-21T08:03:24.618Z,11.25
2023-04-21T08:08:31.502Z,11.43
2023-04-21T08:13:38.404Z,11.57
2023-04-21T08:18:40.066Z,11.73
2023-04-21T08:23:41.795Z,11.89
2023-04-21T08:28:48.769Z,12.06
2023-04-21T08:34:01.782Z,12.28
2023-04-21T08:39:07.515Z,12.50
2023-04-21T08:44:11.822Z,12.67
2023-04-21T08:49:16.494Z,12.84
2023-04-21T08:54:18.221Z,13.04
2023-04-21T08:59:22.424Z,13.18
2023-04-21T09:04:30.218Z,13.36
2023-04-21T09:09:32.089Z,13.55
2023-04-21T09:14:37.140Z,13.75
2023-04-21T09:19:38.862Z,13.91
2023-04-21T09:24:53.096Z,14.11
2023-04-21T09:30:04.213Z,14.33
2023-04-21T09:35:12.602Z,14.50
2023-04-21T09:40:15.426Z,14.69
2023-04-21T09:45:36.624Z,14.87
2023-04-21T09:51:20.092Z,15.08
2023-04-21T09:56:04.896Z,15.24
2023-04-21T10:01:09.596Z,15.44
2023-04-21T10:06:14.971Z,15.61
2023-04-21T10:11:21.723Z,15.78
2023-04-21T10:16:28.145Z,15.90
2023-04-21T10:21:29.859Z,16.11
2023-04-21T10:26:35.369Z,16.22
2023-04-21T10:31:38.437Z,16.42
2023-04-21T10:36:49.053Z,16.53
2023-04-21T10:41:53.307Z,16.77
2023-04-21T10:46:55.093Z,16.91
2023-04-21T10:52:00.067Z,17.07
2023-04-21T10:57:01.927Z,17.24
2023-04-21T11:02:09.002Z,17.41
2023-04-21T11:07:16.589Z,17.59
2023-04-21T11:12:18.512Z,17.81
2023-04-21T11:17:24.351Z,17.98
2023-04-21T11:22:31.586Z,18.14
2023-04-21T11:27:33.948Z,18.31
2023-04-21T11:32:38.503Z,18.47
2023-04-21T11:37:41.232Z,18.61
2023-04-21T11:42:43.147Z,18.87
2023-04-21T11:47:45.342Z,19.14
2023-04-21T11:52:48.704Z,19.65
2023-04-21T11:57:52.808Z,20.84
2023-04-21T12:02:56.948Z,22.08
2023-04-21T12:07:59.010Z,22.97
2023-04-21T12:13:03.987Z,23.76
2023-04-21T12:18:13.588Z,24.41
2023-04-21T12:23:17.679Z,24.97
2023-04-21T12:28:22.049Z,25.60
2023-04-21T12:33:26.515Z,26.08
2023-04-21T12:38:28.595Z,26.62
2023-04-21T12:43:34.883Z,26.94
2023-04-21T12:48:36.787Z,27.46
2023-04-21T12:53:40.749Z,28.02
2023-04-21T12:58:42.504Z,28.68
2023-04-21T13:03:52.341Z,28.90
2023-04-21T13:08:57.011Z,28.75
2023-04-21T13:13:58.793Z,28.92
2023-04-21T13:19:00.897Z,29.56
2023-04-21T13:24:05.025Z,30.04
2023-04-21T13:29:06.702Z,30.41
2023-04-21T13:34:12.130Z,30.95
2023-04-21T13:39:14.951Z,31.15
2023-04-21T13:44:16.690Z,31.53
2023-04-21T13:49:20.993Z,31.76
2023-04-21T13:54:23.008Z,32.10
2023-04-21T13:59:24.729Z,32.41
2023-04-21T14:04:26.828Z,32.89
2023-04-21T14:09:31.037Z,33.53
2023-04-21T14:19:41.657Z,33.65
2023-04-21T14:24:43.394Z,33.69
2023-04-21T14:29:45.230Z,33.09
2023-04-21T14:34:53.297Z,33.83
2023-04-21T14:39:59.506Z,34.20
2023-04-21T14:45:03.705Z,34.57
2023-04-21T14:50:08.884Z,34.87
2023-04-21T14:55:11.002Z,35.47
2023-04-21T15:00:13.245Z,36.18
2023-04-21T15:05:18.903Z,36.28
2023-04-21T15:10:20.728Z,35.99
2023-04-21T15:15:24.653Z,35.54
2023-04-21T15:20:43.003Z,34.38
2023-04-21T15:25:46.140Z,34.65
2023-04-21T15:30:50.176Z,35.30
2023-04-21T15:35:52.313Z,35.14
2023-04-21T15:46:04.546Z,34.49
2023-04-21T15:51:15.973Z,34.00
2023-04-21T15:56:18.045Z,34.11
2023-04-21T16:01:22.416Z,34.25
2023-04-21T16:06:25.276Z,34.00
2023-04-21T16:11:29.482Z,33.55
2023-04-21T16:16:33.566Z,33.18
2023-04-21T16:21:40.022Z,32.87
2023-04-21T16:26:41.928Z,32.38
2023-04-21T16:31:43.763Z,31.94
2023-04-21T16:36:45.852Z,30.64
2023-04-21T16:41:49.811Z,28.39
2023-04-21T16:46:51.663Z,27.18
2023-04-21T16:51:53.559Z,25.53
2023-04-21T16:56:57.653Z,24.60
2023-04-21T17:01:59.408Z,23.94
2023-04-21T17:07:01.087Z,23.56
2023-04-21T17:12:05.754Z,22.98
2023-04-21T17:17:10.176Z,22.48
2023-04-21T17:22:18.891Z,22.23
2023-04-21T17:27:23.067Z,21.93
2023-04-21T17:32:25.233Z,21.47
2023-04-21T17:37:28.900Z,21.08
2023-04-21T17:42:33.331Z,20.67
2023-04-21T17:47:35.466Z,20.29
2023-04-21T17:52:38.016Z,19.91
2023-04-21T17:57:40.056Z,19.63
2023-04-21T18:02:44.410Z,19.31
2023-04-21T18:07:46.631Z,18.97
2023-04-21T18:12:50.846Z,18.70
2023-04-21T18:17:53.295Z,19.03
2023-04-21T18:22:55.253Z,18.37
2023-04-21T18:27:57.153Z,18.17
2023-04-21T18:33:03.699Z,17.94
2023-04-21T18:38:10.550Z,17.66
2023-04-21T18:43:15.306Z,17.42
2023-04-21T18:48:21.865Z,17.24
2023-04-21T18:53:28.598Z,17.07
2023-04-21T18:58:33.358Z,16.87
2023-04-21T19:03:35.408Z,16.68
2023-04-21T19:08:42.490Z,16.52
2023-04-21T19:13:48.229Z,16.35
2023-04-21T19:18:52.300Z,16.19
2023-04-21T19:23:57.896Z,15.99
2023-04-21T19:29:02.510Z,15.84
2023-04-21T19:34:04.665Z,15.69
2023-04-21T19:39:09.255Z,15.62
2023-04-21T19:44:13.330Z,15.40
2023-04-21T19:49:19.781Z,15.25
2023-04-21T19:54:23.839Z,15.13
2023-04-21T19:59:25.614Z,14.99
2023-04-21T20:04:29.885Z,14.88
2023-04-21T20:09:33.840Z,14.73
2023-04-21T20:14:35.867Z,14.60
2023-04-21T20:19:40.527Z,14.54
2023-04-21T20:24:44.594Z,14.37
2023-04-21T20:29:48.521Z,14.12
2023-04-21T20:34:51.728Z,13.89
2023-04-21T20:40:01.490Z,13.68
2023-04-21T20:45:06.310Z,13.56
2023-04-21T20:50:08.515Z,13.42
2023-04-21T20:55:14.945Z,13.32
2023-04-21T21:00:19.355Z,13.22
2023-04-21T21:05:21.235Z,13.11
2023-04-21T21:10:28.169Z,12.99
2023-04-21T21:15:35.205Z,12.91
2023-04-21T21:20:36.882Z,12.83
2023-04-21T21:25:40.877Z,12.70
2023-04-21T21:30:42.587Z,12.63
2023-04-21T21:35:46.603Z,12.55
2023-04-21T21:40:50.747Z,12.49
2023-04-21T21:45:54.731Z,12.43
2023-04-21T21:50:56.728Z,12.38
2023-04-21T21:56:01.781Z,12.28
2023-04-21T22:01:04.082Z,12.20
2023-04-21T22:06:06.262Z,12.15
2023-04-21T22:11:10.808Z,12.13
2023-04-21T22:16:14.775Z,12.07
2023-04-21T22:21:20.520Z,12.00
2023-04-21T22:26:24.508Z,11.99
2023-04-21T22:31:28.423Z,11.91
2023-04-21T22:36:32.736Z,11.82
2023-04-21T22:41:36.757Z,11.75
2023-04-21T22:46:43.725Z,11.73
2023-04-21T22:51:45.424Z,11.66
2023-04-21T22:56:47.126Z,11.63
2023-04-21T23:01:52.309Z,11.58
2023-04-21T23:06:56.522Z,11.52
2023-04-21T23:12:01.310Z,11.44
2023-04-21T23:17:06.080Z,11.39
2023-04-21T23:22:10.616Z,11.31
2023-04-21T23:27:15.360Z,11.22
2023-04-21T23:32:21.815Z,11.17
2023-04-21T23:37:28.297Z,11.08
2023-04-21T23:42:30.133Z,10.99
2023-04-21T23:47:34.183Z,10.92
2023-04-21T23:52:35.886Z,10.87
2023-04-21T23:57:39.915Z,10.82
